sensor_id;sensor_type;location;lat;lon;timestamp;temperature;humidity
37322;DHT22;23697;48.684;9.032;2023-03-14T00:01:33;8.90;90.20
37322;DHT22;23697;48.684;9.032;2023-03-14T00:04:00;8.90;90.20
37322;DHT22;23697;48.684;9.032;2023-03-14T00:06:27;9.00;90.30
37322;DHT22;23697;48.684;9.032;2023-03-14T00:08:54;9.00;90.30
37322;DHT22;23697;48.684;9.032;2023-03-14T00:11:22;9.00;90.30
37322;DHT22;23697;48.684;9.032;2023-03-14T00:13:50;8.90;90.30
37322;DHT22;23697;48.684;9.032;2023-03-14T00:16:18;8.90;90.20
37322;DHT22;23697;48.684;9.032;2023-03-14T00:18:45;9.00;90.30
37322;DHT22;23697;48.684;9.032;2023-03-14T00:21:12;8.90;90.30
37322;DHT22;23697;48.684;9.032;2023-03-14T00:23:40;8.90;90.30
37322;DHT22;23697;48.684;9.032;2023-03-14T00:26:10;8.80;90.20
37322;DHT22;23697;48.684;9.032;2023-03-14T00:28:41;8.90;90.20
37322;DHT22;23697;48.684;9.032;2023-03-14T00:31:09;8.90;90.20
37322;DHT22;23697;48.684;9.032;2023-03-14T00:33:37;8.80;90.20
37322;DHT22;23697;48.684;9.032;2023-03-14T00:36:06;9.00;90.20
37322;DHT22;23697;48.684;9.032;2023-03-14T00:38:35;8.90;90.30
37322;DHT22;23697;48.684;9.032;2023-03-14T00:41:04;8.80;90.20
37322;DHT22;23697;48.684;9.032;2023-03-14T00:43:31;9.00;90.20
37322;DHT22;23697;48.684;9.032;2023-03-14T00:45:59;8.90;90.20
37322;DHT22;23697;48.684;9.032;2023-03-14T00:48:26;8.90;90.20
37322;DHT22;23697;48.684;9.032;2023-03-14T00:50:53;8.80;90.20
37322;DHT22;23697;48.684;9.032;2023-03-14T00:53:20;8.80;90.20
37322;DHT22;23697;48.684;9.032;2023-03-14T00:55:47;8.80;90.20
37322;DHT22;23697;48.684;9.032;2023-03-14T00:58:15;8.90;90.20
37322;DHT22;23697;48.684;9.032;2023-03-14T01:00:43;8.90;90.20
37322;DHT22;23697;48.684;9.032;2023-03-14T01:03:13;8.90;90.20
37322;DHT22;23697;48.684;9.032;2023-03-14T01:05:41;8.90;90.10
37322;DHT22;23697;48.684;9.032;2023-03-14T01:08:08;8.90;90.10
37322;DHT22;23697;48.684;9.032;2023-03-14T01:10:38;9.00;90.10
37322;DHT22;23697;48.684;9.032;2023-03-14T01:13:05;8.90;90.00
37322;DHT22;23697;48.684;9.032;2023-03-14T01:15:32;9.00;90.00
37322;DHT22;23697;48.684;9.032;2023-03-14T01:17:59;8.90;90.00
37322;DHT22;23697;48.684;9.032;2023-03-14T01:20:27;8.90;90.00
37322;DHT22;23697;48.684;9.032;2023-03-14T01:22:54;8.90;89.90
37322;DHT22;23697;48.684;9.032;2023-03-14T01:25:21;9.00;89.90
37322;DHT22;23697;48.684;9.032;2023-03-14T01:27:48;8.90;89.80
37322;DHT22;23697;48.684;9.032;2023-03-14T01:30:15;8.90;89.80
37322;DHT22;23697;48.684;9.032;2023-03-14T01:32:42;8.90;89.70
37322;DHT22;23697;48.684;9.032;2023-03-14T01:35:09;8.80;89.70
37322;DHT22;23697;48.684;9.032;2023-03-14T01:37:37;8.90;89.60
37322;DHT22;23697;48.684;9.032;2023-03-14T01:40:05;9.00;89.60
37322;DHT22;23697;48.684;9.032;2023-03-14T01:42:32;8.90;89.50
37322;DHT22;23697;48.684;9.032;2023-03-14T01:45:01;8.90;89.50
37322;DHT22;23697;48.684;9.032;2023-03-14T01:47:27;8.80;89.30
37322;DHT22;23697;48.684;9.032;2023-03-14T01:49:59;8.90;89.10
37322;DHT22;23697;48.684;9.032;2023-03-14T01:52:29;8.80;89.00
37322;DHT22;23697;48.684;9.032;2023-03-14T01:55:03;8.80;89.10
37322;DHT22;23697;48.684;9.032;2023-03-14T01:57:34;8.70;89.10
37322;DHT22;23697;48.684;9.032;2023-03-14T02:00:07;8.60;89.20
37322;DHT22;23697;48.684;9.032;2023-03-14T02:02:38;8.70;89.30
37322;DHT22;23697;48.684;9.032;2023-03-14T02:05:06;8.60;89.40
37322;DHT22;23697;48.684;9.032;2023-03-14T02:07:36;8.60;89.50
37322;DHT22;23697;48.684;9.032;2023-03-14T02:10:05;8.60;89.60
37322;DHT22;23697;48.684;9.032;2023-03-14T02:12:33;8.50;89.60
37322;DHT22;23697;48.684;9.032;2023-03-14T02:15:01;8.60;89.60
37322;DHT22;23697;48.684;9.032;2023-03-14T02:17:28;8.50;89.70
37322;DHT22;23697;48.684;9.032;2023-03-14T02:20:25;8.60;89.80
37322;DHT22;23697;48.684;9.032;2023-03-14T02:22:54;8.60;89.80
37322;DHT22;23697;48.684;9.032;2023-03-14T02:25:29;8.60;89.90
37322;DHT22;23697;48.684;9.032;2023-03-14T02:28:00;8.50;89.90
37322;DHT22;23697;48.684;9.032;2023-03-14T02:30:29;8.60;89.90
37322;DHT22;23697;48.684;9.032;2023-03-14T02:32:59;8.60;89.90
37322;DHT22;23697;48.684;9.032;2023-03-14T02:35:31;8.60;89.90
37322;DHT22;23697;48.684;9.032;2023-03-14T02:38:02;8.60;89.90
37322;DHT22;23697;48.684;9.032;2023-03-14T02:40:30;8.50;90.00
37322;DHT22;23697;48.684;9.032;2023-03-14T02:42:56;8.50;89.90
37322;DHT22;23697;48.684;9.032;2023-03-14T02:45:37;8.60;89.90
37322;DHT22;23697;48.684;9.032;2023-03-14T02:48:07;8.50;89.90
37322;DHT22;23697;48.684;9.032;2023-03-14T02:50:35;8.60;89.80
37322;DHT22;23697;48.684;9.032;2023-03-14T02:53:02;8.50;89.80
37322;DHT22;23697;48.684;9.032;2023-03-14T02:55:28;8.50;89.80
37322;DHT22;23697;48.684;9.032;2023-03-14T02:57:55;8.50;89.70
37322;DHT22;23697;48.684;9.032;2023-03-14T03:00:22;8.40;89.60
37322;DHT22;23697;48.684;9.032;2023-03-14T03:02:50;8.50;89.50
37322;DHT22;23697;48.684;9.032;2023-03-14T03:05:17;8.40;89.40
37322;DHT22;23697;48.684;9.032;2023-03-14T03:07:44;8.30;89.40
37322;DHT22;23697;48.684;9.032;2023-03-14T03:10:12;8.30;89.20
37322;DHT22;23697;48.684;9.032;2023-03-14T03:12:38;8.30;89.20
37322;DHT22;23697;48.684;9.032;2023-03-14T03:15:06;8.20;89.10
37322;DHT22;23697;48.684;9.032;2023-03-14T03:17:33;8.30;89.00
37322;DHT22;23697;48.684;9.032;2023-03-14T03:20:01;8.30;88.90
37322;DHT22;23697;48.684;9.032;2023-03-14T03:22:30;8.30;88.50
37322;DHT22;23697;48.684;9.032;2023-03-14T03:24:57;8.20;88.50
37322;DHT22;23697;48.684;9.032;2023-03-14T03:27:23;8.30;88.40
37322;DHT22;23697;48.684;9.032;2023-03-14T03:29:50;8.30;87.90
37322;DHT22;23697;48.684;9.032;2023-03-14T03:32:17;8.20;88.00
37322;DHT22;23697;48.684;9.032;2023-03-14T03:34:44;8.20;87.90
37322;DHT22;23697;48.684;9.032;2023-03-14T03:37:12;8.20;87.80
37322;DHT22;23697;48.684;9.032;2023-03-14T03:39:39;8.10;87.70
37322;DHT22;23697;48.684;9.032;2023-03-14T03:42:06;8.10;87.40
37322;DHT22;23697;48.684;9.032;2023-03-14T03:44:33;8.10;87.30
37322;DHT22;23697;48.684;9.032;2023-03-14T03:47:00;8.10;87.20
37322;DHT22;23697;48.684;9.032;2023-03-14T03:49:28;8.10;87.00
37322;DHT22;23697;48.684;9.032;2023-03-14T03:51:55;8.10;86.70
37322;DHT22;23697;48.684;9.032;2023-03-14T03:54:23;8.10;86.70
37322;DHT22;23697;48.684;9.032;2023-03-14T03:56:50;8.10;86.30
37322;DHT22;23697;48.684;9.032;2023-03-14T03:59:18;8.10;86.20
37322;DHT22;23697;48.684;9.032;2023-03-14T04:01:45;8.10;86.10
37322;DHT22;23697;48.684;9.032;2023-03-14T04:04:12;8.00;86.10
37322;DHT22;23697;48.684;9.032;2023-03-14T04:06:39;8.00;86.20
37322;DHT22;23697;48.684;9.032;2023-03-14T04:09:07;8.00;86.00
37322;DHT22;23697;48.684;9.032;2023-03-14T04:11:35;8.00;86.00
37322;DHT22;23697;48.684;9.032;2023-03-14T04:14:02;8.00;85.80
37322;DHT22;23697;48.684;9.032;2023-03-14T04:16:30;8.00;85.70
37322;DHT22;23697;48.684;9.032;2023-03-14T04:18:57;8.00;85.50
37322;DHT22;23697;48.684;9.032;2023-03-14T04:21:24;8.00;85.70
37322;DHT22;23697;48.684;9.032;2023-03-14T04:23:51;7.90;85.70
37322;DHT22;23697;48.684;9.032;2023-03-14T04:26:18;7.90;85.60
37322;DHT22;23697;48.684;9.032;2023-03-14T04:28:55;7.90;85.70
37322;DHT22;23697;48.684;9.032;2023-03-14T04:31:22;7.90;85.30
37322;DHT22;23697;48.684;9.032;2023-03-14T04:33:49;7.90;85.50
37322;DHT22;23697;48.684;9.032;2023-03-14T04:36:15;7.90;85.10
37322;DHT22;23697;48.684;9.032;2023-03-14T04:38:42;7.90;85.20
37322;DHT22;23697;48.684;9.032;2023-03-14T04:41:09;7.90;85.30
37322;DHT22;23697;48.684;9.032;2023-03-14T04:43:36;7.90;85.10
37322;DHT22;23697;48.684;9.032;2023-03-14T04:46:06;7.90;85.30
37322;DHT22;23697;48.684;9.032;2023-03-14T04:48:33;7.80;85.20
37322;DHT22;23697;48.684;9.032;2023-03-14T04:50:59;7.80;85.40
37322;DHT22;23697;48.684;9.032;2023-03-14T04:53:26;7.80;85.40
37322;DHT22;23697;48.684;9.032;2023-03-14T04:55:57;7.70;85.50
37322;DHT22;23697;48.684;9.032;2023-03-14T04:58:31;7.80;85.30
37322;DHT22;23697;48.684;9.032;2023-03-14T05:01:04;7.70;85.50
37322;DHT22;23697;48.684;9.032;2023-03-14T05:03:36;7.70;85.50
37322;DHT22;23697;48.684;9.032;2023-03-14T05:06:04;7.70;85.60
37322;DHT22;23697;48.684;9.032;2023-03-14T05:08:31;7.60;85.70
37322;DHT22;23697;48.684;9.032;2023-03-14T05:10:58;7.60;85.90
37322;DHT22;23697;48.684;9.032;2023-03-14T05:13:25;7.60;86.00
37322;DHT22;23697;48.684;9.032;2023-03-14T05:15:52;7.50;86.00
37322;DHT22;23697;48.684;9.032;2023-03-14T05:18:20;7.60;86.00
37322;DHT22;23697;48.684;9.032;2023-03-14T05:20:50;7.50;86.00
37322;DHT22;23697;48.684;9.032;2023-03-14T05:23:17;7.50;86.00
37322;DHT22;23697;48.684;9.032;2023-03-14T05:25:44;7.50;85.90
37322;DHT22;23697;48.684;9.032;2023-03-14T05:28:10;7.50;85.90
37322;DHT22;23697;48.684;9.032;2023-03-14T05:30:37;7.50;85.90
37322;DHT22;23697;48.684;9.032;2023-03-14T05:33:04;7.60;85.80
37322;DHT22;23697;48.684;9.032;2023-03-14T05:35:32;7.60;85.70
37322;DHT22;23697;48.684;9.032;2023-03-14T05:37:59;7.60;85.70
37322;DHT22;23697;48.684;9.032;2023-03-14T05:40:26;7.70;85.30
37322;DHT22;23697;48.684;9.032;2023-03-14T05:42:53;7.70;85.10
37322;DHT22;23697;48.684;9.032;2023-03-14T05:45:20;7.70;85.00
37322;DHT22;23697;48.684;9.032;2023-03-14T05:47:47;7.70;85.00
37322;DHT22;23697;48.684;9.032;2023-03-14T05:50:14;7.60;85.00
37322;DHT22;23697;48.684;9.032;2023-03-14T05:52:42;7.70;85.00
37322;DHT22;23697;48.684;9.032;2023-03-14T05:55:09;7.70;84.80
37322;DHT22;23697;48.684;9.032;2023-03-14T05:57:36;7.60;84.80
37322;DHT22;23697;48.684;9.032;2023-03-14T06:00:04;7.60;85.00
37322;DHT22;23697;48.684;9.032;2023-03-14T06:02:32;7.70;84.60
37322;DHT22;23697;48.684;9.032;2023-03-14T06:04:59;7.60;84.60
37322;DHT22;23697;48.684;9.032;2023-03-14T06:07:26;7.70;84.50
37322;DHT22;23697;48.684;9.032;2023-03-14T06:09:54;7.70;84.50
37322;DHT22;23697;48.684;9.032;2023-03-14T06:12:21;7.80;84.00
37322;DHT22;23697;48.684;9.032;2023-03-14T06:14:48;7.80;84.10
37322;DHT22;23697;48.684;9.032;2023-03-14T06:17:14;7.90;83.80
37322;DHT22;23697;48.684;9.032;2023-03-14T06:19:41;7.90;83.50
37322;DHT22;23697;48.684;9.032;2023-03-14T06:22:08;8.00;83.50
37322;DHT22;23697;48.684;9.032;2023-03-14T06:24:35;8.00;83.40
37322;DHT22;23697;48.684;9.032;2023-03-14T06:27:05;8.00;83.30
37322;DHT22;23697;48.684;9.032;2023-03-14T06:29:41;8.00;83.00
37322;DHT22;23697;48.684;9.032;2023-03-14T06:32:08;8.10;82.90
37322;DHT22;23697;48.684;9.032;2023-03-14T06:34:35;8.10;82.70
37322;DHT22;23697;48.684;9.032;2023-03-14T06:37:03;8.10;82.90
37322;DHT22;23697;48.684;9.032;2023-03-14T06:39:31;8.10;82.70
37322;DHT22;23697;48.684;9.032;2023-03-14T06:41:58;8.10;82.50
37322;DHT22;23697;48.684;9.032;2023-03-14T06:44:26;8.10;81.90
37322;DHT22;23697;48.684;9.032;2023-03-14T06:46:53;8.20;82.20
37322;DHT22;23697;48.684;9.032;2023-03-14T06:49:20;8.20;81.70
37322;DHT22;23697;48.684;9.032;2023-03-14T06:51:48;8.30;82.00
37322;DHT22;23697;48.684;9.032;2023-03-14T06:54:15;8.30;82.30
37322;DHT22;23697;48.684;9.032;2023-03-14T06:56:42;8.40;82.00
37322;DHT22;23697;48.684;9.032;2023-03-14T06:59:09;8.50;81.70
37322;DHT22;23697;48.684;9.032;2023-03-14T07:01:37;8.50;81.40
37322;DHT22;23697;48.684;9.032;2023-03-14T07:04:04;8.40;81.40
37322;DHT22;23697;48.684;9.032;2023-03-14T07:06:31;8.40;81.00
37322;DHT22;23697;48.684;9.032;2023-03-14T07:08:58;8.50;81.40
37322;DHT22;23697;48.684;9.032;2023-03-14T07:11:25;8.60;81.40
37322;DHT22;23697;48.684;9.032;2023-03-14T07:13:52;8.70;80.70
37322;DHT22;23697;48.684;9.032;2023-03-14T07:16:19;8.70;80.30
37322;DHT22;23697;48.684;9.032;2023-03-14T07:18:47;8.70;80.20
37322;DHT22;23697;48.684;9.032;2023-03-14T07:21:15;8.70;80.70
37322;DHT22;23697;48.684;9.032;2023-03-14T07:23:42;8.70;80.40
37322;DHT22;23697;48.684;9.032;2023-03-14T07:26:09;8.90;80.20
37322;DHT22;23697;48.684;9.032;2023-03-14T07:28:36;9.00;79.30
37322;DHT22;23697;48.684;9.032;2023-03-14T07:31:03;9.00;79.60
37322;DHT22;23697;48.684;9.032;2023-03-14T07:33:32;9.00;79.60
37322;DHT22;23697;48.684;9.032;2023-03-14T07:36:01;9.20;78.80
37322;DHT22;23697;48.684;9.032;2023-03-14T07:38:28;9.30;78.60
37322;DHT22;23697;48.684;9.032;2023-03-14T07:40:59;9.40;79.00
37322;DHT22;23697;48.684;9.032;2023-03-14T07:43:27;9.60;79.00
37322;DHT22;23697;48.684;9.032;2023-03-14T07:45:54;9.70;77.80
37322;DHT22;23697;48.684;9.032;2023-03-14T07:48:21;9.80;77.50
37322;DHT22;23697;48.684;9.032;2023-03-14T07:50:50;9.80;76.30
37322;DHT22;23697;48.684;9.032;2023-03-14T07:53:19;9.80;76.50
37322;DHT22;23697;48.684;9.032;2023-03-14T07:55:46;9.90;77.10
37322;DHT22;23697;48.684;9.032;2023-03-14T07:58:13;10.10;76.80
37322;DHT22;23697;48.684;9.032;2023-03-14T08:00:40;10.50;76.40
37322;DHT22;23697;48.684;9.032;2023-03-14T08:03:07;10.70;74.20
37322;DHT22;23697;48.684;9.032;2023-03-14T08:05:35;10.90;73.50
37322;DHT22;23697;48.684;9.032;2023-03-14T08:08:02;11.00;73.40
37322;DHT22;23697;48.684;9.032;2023-03-14T08:10:31;11.10;73.00
37322;DHT22;23697;48.684;9.032;2023-03-14T08:13:00;11.10;73.30
37322;DHT22;23697;48.684;9.032;2023-03-14T08:15:28;11.00;72.50
37322;DHT22;23697;48.684;9.032;2023-03-14T08:17:55;11.00;73.00
37322;DHT22;23697;48.684;9.032;2023-03-14T08:20:24;11.00;72.90
37322;DHT22;23697;48.684;9.032;2023-03-14T08:22:52;11.10;71.50
37322;DHT22;23697;48.684;9.032;2023-03-14T08:25:19;11.30;70.70
37322;DHT22;23697;48.684;9.032;2023-03-14T08:27:47;11.60;71.40
37322;DHT22;23697;48.684;9.032;2023-03-14T08:30:15;11.80;70.20
37322;DHT22;23697;48.684;9.032;2023-03-14T08:32:42;11.80;69.00
37322;DHT22;23697;48.684;9.032;2023-03-14T08:35:10;11.80;67.90
37322;DHT22;23697;48.684;9.032;2023-03-14T08:37:37;11.70;68.60
37322;DHT22;23697;48.684;9.032;2023-03-14T08:40:05;11.50;68.20
37322;DHT22;23697;48.684;9.032;2023-03-14T08:42:33;11.30;69.00
37322;DHT22;23697;48.684;9.032;2023-03-14T08:45:02;11.10;69.30
37322;DHT22;23697;48.684;9.032;2023-03-14T08:47:29;11.00;70.70
37322;DHT22;23697;48.684;9.032;2023-03-14T08:49:56;11.00;71.00
37322;DHT22;23697;48.684;9.032;2023-03-14T08:52:25;11.00;71.70
37322;DHT22;23697;48.684;9.032;2023-03-14T08:55:06;11.00;71.20
37322;DHT22;23697;48.684;9.032;2023-03-14T08:57:33;11.10;71.30
37322;DHT22;23697;48.684;9.032;2023-03-14T08:59:59;11.10;72.00
37322;DHT22;23697;48.684;9.032;2023-03-14T09:02:28;11.10;73.30
37322;DHT22;23697;48.684;9.032;2023-03-14T09:04:55;11.00;74.60
37322;DHT22;23697;48.684;9.032;2023-03-14T09:07:22;10.80;74.20
37322;DHT22;23697;48.684;9.032;2023-03-14T09:09:50;10.80;75.50
37322;DHT22;23697;48.684;9.032;2023-03-14T09:12:17;10.70;75.60
37322;DHT22;23697;48.684;9.032;2023-03-14T09:14:44;10.60;76.40
37322;DHT22;23697;48.684;9.032;2023-03-14T09:17:11;10.60;76.60
37322;DHT22;23697;48.684;9.032;2023-03-14T09:19:39;10.60;75.60
37322;DHT22;23697;48.684;9.032;2023-03-14T09:22:06;10.60;74.30
37322;DHT22;23697;48.684;9.032;2023-03-14T09:24:33;10.70;75.50
37322;DHT22;23697;48.684;9.032;2023-03-14T09:26:59;10.60;74.10
37322;DHT22;23697;48.684;9.032;2023-03-14T09:29:26;10.70;74.60
37322;DHT22;23697;48.684;9.032;2023-03-14T09:31:53;10.70;73.50
37322;DHT22;23697;48.684;9.032;2023-03-14T09:34:20;10.70;73.80
37322;DHT22;23697;48.684;9.032;2023-03-14T09:36:48;10.80;72.40
37322;DHT22;23697;48.684;9.032;2023-03-14T09:39:15;10.90;73.00
37322;DHT22;23697;48.684;9.032;2023-03-14T09:41:45;11.00;71.60
37322;DHT22;23697;48.684;9.032;2023-03-14T09:44:15;11.20;71.20
37322;DHT22;23697;48.684;9.032;2023-03-14T09:46:45;11.30;72.10
37322;DHT22;23697;48.684;9.032;2023-03-14T09:49:19;11.30;71.60
37322;DHT22;23697;48.684;9.032;2023-03-14T09:51:51;11.30;71.80
37322;DHT22;23697;48.684;9.032;2023-03-14T09:54:30;11.10;71.90
37322;DHT22;23697;48.684;9.032;2023-03-14T09:56:57;11.10;71.40
37322;DHT22;23697;48.684;9.032;2023-03-14T09:59:25;11.20;72.40
37322;DHT22;23697;48.684;9.032;2023-03-14T10:01:55;11.50;70.90
37322;DHT22;23697;48.684;9.032;2023-03-14T10:04:22;11.60;71.60
37322;DHT22;23697;48.684;9.032;2023-03-14T10:06:51;11.80;71.20
37322;DHT22;23697;48.684;9.032;2023-03-14T10:09:20;12.00;71.10
37322;DHT22;23697;48.684;9.032;2023-03-14T10:11:52;12.30;70.30
37322;DHT22;23697;48.684;9.032;2023-03-14T10:14:30;12.20;68.30
37322;DHT22;23697;48.684;9.032;2023-03-14T10:17:05;12.50;68.10
37322;DHT22;23697;48.684;9.032;2023-03-14T10:19:32;12.30;67.30
37322;DHT22;23697;48.684;9.032;2023-03-14T10:22:03;12.40;67.60
37322;DHT22;23697;48.684;9.032;2023-03-14T10:24:31;12.50;67.40
37322;DHT22;23697;48.684;9.032;2023-03-14T10:27:00;12.40;66.70
37322;DHT22;23697;48.684;9.032;2023-03-14T10:36:17;12.30;67.20
37322;DHT22;23697;48.684;9.032;2023-03-14T12:38:52;10.60;70.20
37322;DHT22;23697;48.684;9.032;2023-03-14T12:41:23;10.60;68.00
37322;DHT22;23697;48.684;9.032;2023-03-14T12:43:51;10.60;67.40
37322;DHT22;23697;48.684;9.032;2023-03-14T12:46:23;10.90;67.50
37322;DHT22;23697;48.684;9.032;2023-03-14T12:48:55;11.00;66.30
37322;DHT22;23697;48.684;9.032;2023-03-14T12:51:35;11.10;63.10
37322;DHT22;23697;48.684;9.032;2023-03-14T12:54:28;10.90;61.00
37322;DHT22;23697;48.684;9.032;2023-03-14T12:57:10;10.80;61.00
37322;DHT22;23697;48.684;9.032;2023-03-14T12:59:46;10.80;61.00
37322;DHT22;23697;48.684;9.032;2023-03-14T13:02:21;10.60;61.60
37322;DHT22;23697;48.684;9.032;2023-03-14T13:04:52;10.20;61.80
37322;DHT22;23697;48.684;9.032;2023-03-14T13:07:32;10.00;60.80
37322;DHT22;23697;48.684;9.032;2023-03-14T13:10:19;9.90;60.20
37322;DHT22;23697;48.684;9.032;2023-03-14T13:12:56;10.00;59.90
37322;DHT22;23697;48.684;9.032;2023-03-14T13:15:27;10.30;59.50
37322;DHT22;23697;48.684;9.032;2023-03-14T13:18:00;10.50;58.50
37322;DHT22;23697;48.684;9.032;2023-03-14T13:20:31;10.60;56.10
37322;DHT22;23697;48.684;9.032;2023-03-14T13:23:00;10.10;55.90
37322;DHT22;23697;48.684;9.032;2023-03-14T13:25:30;9.80;56.30
37322;DHT22;23697;48.684;9.032;2023-03-14T13:27:58;9.70;57.10
37322;DHT22;23697;48.684;9.032;2023-03-14T13:30:27;9.60;56.40
37322;DHT22;23697;48.684;9.032;2023-03-14T13:32:55;9.40;57.70
37322;DHT22;23697;48.684;9.032;2023-03-14T13:35:25;9.20;56.70
37322;DHT22;23697;48.684;9.032;2023-03-14T13:37:55;9.00;57.70
37322;DHT22;23697;48.684;9.032;2023-03-14T13:40:30;8.80;57.90
37322;DHT22;23697;48.684;9.032;2023-03-14T13:43:15;8.70;57.00
37322;DHT22;23697;48.684;9.032;2023-03-14T13:45:50;8.60;58.90
37322;DHT22;23697;48.684;9.032;2023-03-14T13:48:18;8.60;58.40
37322;DHT22;23697;48.684;9.032;2023-03-14T13:50:58;8.80;57.30
37322;DHT22;23697;48.684;9.032;2023-03-14T13:53:25;8.80;56.70
37322;DHT22;23697;48.684;9.032;2023-03-14T13:55:53;8.80;55.70
37322;DHT22;23697;48.684;9.032;2023-03-14T13:58:23;8.80;54.70
37322;DHT22;23697;48.684;9.032;2023-03-14T14:01:03;8.80;54.00
37322;DHT22;23697;48.684;9.032;2023-03-14T14:03:32;8.70;53.80
37322;DHT22;23697;48.684;9.032;2023-03-14T14:06:00;8.60;52.30
37322;DHT22;23697;48.684;9.032;2023-03-14T14:08:27;8.50;53.70
37322;DHT22;23697;48.684;9.032;2023-03-14T14:10:59;8.60;54.30
37322;DHT22;23697;48.684;9.032;2023-03-14T14:13:30;8.60;54.70
37322;DHT22;23697;48.684;9.032;2023-03-14T14:16:00;8.70;54.10
37322;DHT22;23697;48.684;9.032;2023-03-14T14:18:30;8.60;53.10
37322;DHT22;23697;48.684;9.032;2023-03-14T14:20:57;8.60;53.50
37322;DHT22;23697;48.684;9.032;2023-03-14T14:23:26;8.50;53.20
37322;DHT22;23697;48.684;9.032;2023-03-14T14:25:57;8.40;53.20
37322;DHT22;23697;48.684;9.032;2023-03-14T14:28:26;8.30;53.90
37322;DHT22;23697;48.684;9.032;2023-03-14T14:31:02;8.30;54.90
37322;DHT22;23697;48.684;9.032;2023-03-14T14:33:38;8.40;56.50
37322;DHT22;23697;48.684;9.032;2023-03-14T14:36:17;8.30;54.80
37322;DHT22;23697;48.684;9.032;2023-03-14T14:38:52;8.20;54.80
37322;DHT22;23697;48.684;9.032;2023-03-14T14:41:21;8.10;55.40
37322;DHT22;23697;48.684;9.032;2023-03-14T14:43:48;8.10;55.20
37322;DHT22;23697;48.684;9.032;2023-03-14T14:46:18;8.20;55.40
37322;DHT22;23697;48.684;9.032;2023-03-14T14:48:46;8.20;54.00
37322;DHT22;23697;48.684;9.032;2023-03-14T14:51:25;8.20;54.60
37322;DHT22;23697;48.684;9.032;2023-03-14T14:54:09;8.20;54.90
37322;DHT22;23697;48.684;9.032;2023-03-14T14:56:38;8.30;55.60
37322;DHT22;23697;48.684;9.032;2023-03-14T14:59:07;8.30;55.10
37322;DHT22;23697;48.684;9.032;2023-03-14T15:01:45;8.30;54.60
37322;DHT22;23697;48.684;9.032;2023-03-14T15:04:15;8.30;54.30
37322;DHT22;23697;48.684;9.032;2023-03-14T15:06:44;8.30;54.50
37322;DHT22;23697;48.684;9.032;2023-03-14T15:09:12;8.40;55.20
37322;DHT22;23697;48.684;9.032;2023-03-14T15:11:40;8.80;54.50
37322;DHT22;23697;48.684;9.032;2023-03-14T15:14:07;9.10;53.20
37322;DHT22;23697;48.684;9.032;2023-03-14T15:16:34;9.10;53.70
37322;DHT22;23697;48.684;9.032;2023-03-14T15:19:02;9.20;53.40
37322;DHT22;23697;48.684;9.032;2023-03-14T15:21:31;9.30;53.80
37322;DHT22;23697;48.684;9.032;2023-03-14T15:24:00;9.10;52.40
37322;DHT22;23697;48.684;9.032;2023-03-14T15:26:27;9.00;53.20
37322;DHT22;23697;48.684;9.032;2023-03-14T15:28:56;8.80;53.30
37322;DHT22;23697;48.684;9.032;2023-03-14T15:31:23;8.50;53.80
37322;DHT22;23697;48.684;9.032;2023-03-14T15:33:50;8.30;54.60
37322;DHT22;23697;48.684;9.032;2023-03-14T15:36:22;8.20;55.20
37322;DHT22;23697;48.684;9.032;2023-03-14T15:38:50;8.20;55.90
37322;DHT22;23697;48.684;9.032;2023-03-14T15:41:17;8.20;55.60
37322;DHT22;23697;48.684;9.032;2023-03-14T15:43:44;8.10;56.50
37322;DHT22;23697;48.684;9.032;2023-03-14T15:46:13;8.10;56.60
37322;DHT22;23697;48.684;9.032;2023-03-14T15:48:42;8.10;57.40
37322;DHT22;23697;48.684;9.032;2023-03-14T15:51:10;8.10;57.30
37322;DHT22;23697;48.684;9.032;2023-03-14T15:53:37;8.00;57.00
37322;DHT22;23697;48.684;9.032;2023-03-14T15:56:05;8.10;57.90
37322;DHT22;23697;48.684;9.032;2023-03-14T15:58:32;8.00;57.80
37322;DHT22;23697;48.684;9.032;2023-03-14T16:01:00;8.00;56.90
37322;DHT22;23697;48.684;9.032;2023-03-14T16:03:29;8.00;57.00
37322;DHT22;23697;48.684;9.032;2023-03-14T16:05:56;8.00;56.70
37322;DHT22;23697;48.684;9.032;2023-03-14T16:08:23;8.10;57.00
37322;DHT22;23697;48.684;9.032;2023-03-14T16:10:51;8.10;57.40
37322;DHT22;23697;48.684;9.032;2023-03-14T16:13:18;8.10;57.30
37322;DHT22;23697;48.684;9.032;2023-03-14T16:15:55;8.10;57.50
37322;DHT22;23697;48.684;9.032;2023-03-14T16:18:26;8.20;56.50
37322;DHT22;23697;48.684;9.032;2023-03-14T16:20:57;8.20;56.10
37322;DHT22;23697;48.684;9.032;2023-03-14T16:23:24;8.10;57.00
37322;DHT22;23697;48.684;9.032;2023-03-14T16:25:52;8.10;57.80
37322;DHT22;23697;48.684;9.032;2023-03-14T16:28:20;8.00;57.10
37322;DHT22;23697;48.684;9.032;2023-03-14T16:30:47;7.90;57.40
37322;DHT22;23697;48.684;9.032;2023-03-14T16:33:15;7.70;57.60
37322;DHT22;23697;48.684;9.032;2023-03-14T16:35:52;7.60;58.40
37322;DHT22;23697;48.684;9.032;2023-03-14T16:38:21;7.50;59.70
37322;DHT22;23697;48.684;9.032;2023-03-14T16:40:55;7.50;58.60
37322;DHT22;23697;48.684;9.032;2023-03-14T16:43:23;7.50;60.30
37322;DHT22;23697;48.684;9.032;2023-03-14T16:45:50;7.50;60.10
37322;DHT22;23697;48.684;9.032;2023-03-14T16:48:17;7.40;61.10
37322;DHT22;23697;48.684;9.032;2023-03-14T16:50:43;7.40;60.50
37322;DHT22;23697;48.684;9.032;2023-03-14T16:53:10;7.40;61.30
37322;DHT22;23697;48.684;9.032;2023-03-14T16:55:41;7.40;61.80
37322;DHT22;23697;48.684;9.032;2023-03-14T16:58:08;7.30;61.90
37322;DHT22;23697;48.684;9.032;2023-03-14T17:00:35;7.20;62.10
37322;DHT22;23697;48.684;9.032;2023-03-14T17:03:04;7.20;63.10
37322;DHT22;23697;48.684;9.032;2023-03-14T17:05:31;7.20;63.30
37322;DHT22;23697;48.684;9.032;2023-03-14T17:07:58;7.10;64.00
37322;DHT22;23697;48.684;9.032;2023-03-14T17:10:25;7.10;65.60
37322;DHT22;23697;48.684;9.032;2023-03-14T17:12:54;7.00;66.50
37322;DHT22;23697;48.684;9.032;2023-03-14T17:15:21;6.80;67.80
37322;DHT22;23697;48.684;9.032;2023-03-14T17:17:48;6.70;68.90
37322;DHT22;23697;48.684;9.032;2023-03-14T17:23:27;6.50;71.00
37322;DHT22;23697;48.684;9.032;2023-03-14T17:25:55;6.40;71.70
37322;DHT22;23697;48.684;9.032;2023-03-14T17:28:24;6.30;72.20
37322;DHT22;23697;48.684;9.032;2023-03-14T17:31:01;6.30;72.70
37322;DHT22;23697;48.684;9.032;2023-03-14T17:33:28;6.20;73.20
37322;DHT22;23697;48.684;9.032;2023-03-14T17:35:55;6.20;73.30
37322;DHT22;23697;48.684;9.032;2023-03-14T17:38:22;6.10;73.50
37322;DHT22;23697;48.684;9.032;2023-03-14T17:40:49;6.10;74.10
37322;DHT22;23697;48.684;9.032;2023-03-14T17:43:16;6.10;74.40
37322;DHT22;23697;48.684;9.032;2023-03-14T17:45:45;6.10;74.70
37322;DHT22;23697;48.684;9.032;2023-03-14T17:48:12;6.10;75.10
37322;DHT22;23697;48.684;9.032;2023-03-14T17:50:39;6.00;75.50
37322;DHT22;23697;48.684;9.032;2023-03-14T17:53:06;6.00;75.80
37322;DHT22;23697;48.684;9.032;2023-03-14T17:55:32;5.90;75.90
37322;DHT22;23697;48.684;9.032;2023-03-14T17:57:59;5.90;76.20
37322;DHT22;23697;48.684;9.032;2023-03-14T18:00:27;5.80;75.90
37322;DHT22;23697;48.684;9.032;2023-03-14T18:02:55;5.80;76.40